Time;durP1;ratioP1;P1;durP2;ratioP2;P2;SDS_P1;SDS_P2;PMS_P1;PMS_P2;Temp;Humidity;BMP_temperature;BMP_pressure;BME280_temperature;BME280_humidity;BME280_pressure;Samples;Min_cycle;Max_cycle;Signal;HPM_P1;HPM_P2
2021/06/13 00:09:14;;;;;;;7.55;4.90;;;;;;;17.50;100.00;98896.09;1845662;76;22548;-55
2021/06/13 00:11:41;;;;;;;6.05;4.78;;;;;;;17.46;100.00;98908.77;1825576;77;20975;-55
2021/06/13 00:14:09;;;;;;;6.10;5.05;;;;;;;17.44;100.00;98901.25;1827868;76;22247;-56
2021/06/13 00:16:36;;;;;;;5.65;4.92;;;;;;;17.43;100.00;98898.17;1822699;77;21368;-55
2021/06/13 00:19:04;;;;;;;8.93;5.12;;;;;;;17.41;100.00;98897.44;1826754;77;20901;-55
2021/06/13 00:21:33;;;;;;;6.20;4.78;;;;;;;17.39;100.00;98888.05;1825206;77;21416;-55
2021/06/13 00:24:00;;;;;;;6.50;5.08;;;;;;;17.36;100.00;98886.09;1830848;76;20917;-55
2021/06/13 00:26:28;;;;;;;8.05;5.90;;;;;;;17.36;100.00;98880.64;1827135;76;21130;-55
2021/06/13 00:28:55;;;;;;;7.37;6.03;;;;;;;17.34;100.00;98875.84;1828950;76;20901;-55
2021/06/13 00:31:23;;;;;;;11.90;6.33;;;;;;;17.32;100.00;98884.67;1827048;76;20988;-56
2021/06/13 00:33:52;;;;;;;8.78;5.40;;;;;;;17.29;100.00;98873.54;1829105;77;20995;-56
2021/06/13 00:36:19;;;;;;;7.00;5.55;;;;;;;17.27;100.00;98879.14;1828310;77;20952;-55
2021/06/13 00:38:47;;;;;;;9.15;5.92;;;;;;;17.27;100.00;98881.86;1825010;77;21092;-55
2021/06/13 00:41:18;;;;;;;7.83;5.65;;;;;;;17.26;100.00;98876.06;1812563;77;20909;-55
2021/06/13 00:43:47;;;;;;;11.35;6.12;;;;;;;17.24;100.00;98875.31;1804060;77;21529;-55
2021/06/13 00:46:14;;;;;;;11.55;6.45;;;;;;;17.22;100.00;98865.08;1829896;77;20889;-55
2021/06/13 00:48:42;;;;;;;8.85;6.50;;;;;;;17.20;100.00;98871.14;1830784;76;20948;-55
2021/06/13 00:51:09;;;;;;;12.60;6.45;;;;;;;17.19;100.00;98858.53;1827458;77;21275;-54
2021/06/13 00:53:36;;;;;;;11.85;6.35;;;;;;;17.17;100.00;98857.82;1826453;77;21429;-55
2021/06/13 00:56:05;;;;;;;6.92;6.22;;;;;;;17.15;100.00;98858.48;1825622;77;20936;-55
2021/06/13 00:58:35;;;;;;;7.87;5.97;;;;;;;17.14;100.00;98852.64;1809962;77;21400;-55
2021/06/13 01:01:03;;;;;;;8.73;6.80;;;;;;;17.12;100.00;98849.20;1827780;77;20917;-55
2021/06/13 01:03:32;;;;;;;7.15;6.28;;;;;;;17.12;100.00;98852.44;1827727;77;21107;-54
2021/06/13 01:06:00;;;;;;;13.15;6.40;;;;;;;17.11;100.00;98848.00;1825019;77;20901;-54
2021/06/13 01:09:06;;;;;;;6.97;6.17;;;;;;;17.08;100.00;98843.67;1830025;76;20897;-55
2021/06/13 01:12:07;;;;;;;11.48;6.05;;;;;;;17.07;100.00;98841.95;1833680;77;20929;-55
2021/06/13 01:15:04;;;;;;;8.10;6.50;;;;;;;17.06;100.00;98840.23;1833175;76;20940;-55
2021/06/13 01:17:46;;;;;;;8.68;6.47;;;;;;;17.03;100.00;98829.61;1830111;77;21093;-54
2021/06/13 01:20:34;;;;;;;7.55;6.72;;;;;;;17.02;100.00;98821.08;1803315;77;21004;-57
2021/06/13 01:23:48;;;;;;;11.57;7.53;;;;;;;17.00;100.00;98814.42;1829627;77;20936;-55
2021/06/13 01:26:37;;;;;;;9.75;6.78;;;;;;;17.00;100.00;98821.73;1829616;77;20912;-54
2021/06/13 01:29:21;;;;;;;9.80;7.08;;;;;;;16.99;100.00;98809.98;1834312;75;21512;-54
2021/06/13 01:31:57;;;;;;;12.25;7.40;;;;;;;16.98;100.00;98816.41;1826529;76;21134;-55
2021/06/13 01:34:30;;;;;;;11.40;7.72;;;;;;;16.96;100.00;98806.67;1830995;75;20909;-55
2021/06/13 01:36:59;;;;;;;15.68;7.85;;;;;;;16.94;100.00;98807.32;1818354;77;20928;-53
2021/06/13 01:39:27;;;;;;;10.05;7.85;;;;;;;16.95;100.00;98806.31;1821243;77;20976;-55
2021/06/13 01:41:58;;;;;;;11.55;7.87;;;;;;;16.94;100.00;98810.05;1833062;75;20981;-55
2021/06/13 01:44:26;;;;;;;8.73;7.80;;;;;;;16.93;100.00;98798.77;1830971;75;21104;-55
2021/06/13 01:46:54;;;;;;;12.88;8.05;;;;;;;16.92;100.00;98797.91;1832861;75;20928;-55
2021/06/13 01:49:21;;;;;;;14.98;8.85;;;;;;;16.90;100.00;98794.98;1834871;75;20903;-56
2021/06/13 01:51:48;;;;;;;14.00;9.58;;;;;;;16.89;100.00;98800.08;1806990;77;20933;-55
2021/06/13 01:54:18;;;;;;;11.18;10.05;;;;;;;16.86;100.00;98792.17;1832645;75;21465;-54
2021/06/13 01:56:50;;;;;;;13.35;10.03;;;;;;;16.84;100.00;98797.77;1833198;75;21121;-55
2021/06/13 01:59:21;;;;;;;13.45;8.28;;;;;;;16.82;100.00;98790.72;1829853;75;21454;-55
2021/06/13 02:01:51;;;;;;;12.98;9.08;;;;;;;16.82;100.00;98798.89;1828482;75;20947;-55
2021/06/13 02:04:18;;;;;;;10.13;8.40;;;;;;;16.81;100.00;98784.92;1831168;75;21294;-54
2021/06/13 02:06:50;;;;;;;13.40;7.42;;;;;;;16.81;100.00;98789.01;1828992;75;20971;-55
2021/06/13 02:09:20;;;;;;;9.38;8.08;;;;;;;16.82;100.00;98788.00;1773121;78;21086;-55
2021/06/13 02:11:48;;;;;;;9.88;7.90;;;;;;;16.91;100.00;98787.16;1790834;79;21022;-54
2021/06/13 02:14:20;;;;;;;10.55;8.35;;;;;;;17.03;100.00;98780.58;1789782;78;21817;-56
2021/06/13 02:16:50;;;;;;;12.60;7.55;;;;;;;17.19;100.00;98780.87;1790711;79;21016;-54
2021/06/13 02:19:21;;;;;;;12.30;8.18;;;;;;;17.36;100.00;98775.71;1790062;79;20981;-56
2021/06/13 02:21:55;;;;;;;9.40;7.55;;;;;;;17.52;100.00;98770.53;1792546;79;21129;-54
2021/06/13 02:24:20;;;;;;;8.75;7.20;;;;;;;17.67;100.00;98763.63;1792984;77;21439;-56
2021/06/13 02:26:47;;;;;;;10.75;6.65;;;;;;;17.84;100.00;98765.27;1788932;79;20879;-55
2021/06/13 02:29:15;;;;;;;9.30;6.45;;;;;;;17.97;100.00;98761.73;1762409;79;21398;-56
2021/06/13 02:31:43;;;;;;;7.92;7.00;;;;;;;18.12;100.00;98765.70;1788973;79;20942;-55
2021/06/13 02:34:11;;;;;;;9.25;6.50;;;;;;;18.26;100.00;98765.20;1787978;78;21094;-55
2021/06/13 02:36:38;;;;;;;9.35;6.75;;;;;;;18.39;100.00;98767.61;1787184;79;20926;-55
2021/06/13 02:39:06;;;;;;;7.12;6.12;;;;;;;18.51;100.00;98760.92;1792706;79;21415;-55
2021/06/13 02:41:35;;;;;;;9.15;6.15;;;;;;;18.70;100.00;98764.11;1787162;79;20886;-55
2021/06/13 02:44:03;;;;;;;7.72;5.55;;;;;;;18.86;100.00;98759.34;1789909;79;20973;-54
2021/06/13 02:46:32;;;;;;;7.33;6.58;;;;;;;19.00;100.00;98755.19;1787761;79;21120;-55
2021/06/13 02:48:59;;;;;;;8.13;6.03;;;;;;;19.16;100.00;98754.50;1791409;78;20953;-54
2021/06/13 02:51:33;;;;;;;6.30;5.67;;;;;;;19.26;100.00;98756.13;1759992;79;21518;-55
2021/06/13 02:54:01;;;;;;;9.70;5.75;;;;;;;19.33;100.00;98754.99;1788082;79;21420;-56
2021/06/13 02:56:45;;;;;;;9.68;5.95;;;;;;;19.30;100.00;98750.71;1790949;79;20946;-55
2021/06/13 02:59:37;;;;;;;10.30;6.40;;;;;;;19.17;100.00;98761.16;1779769;79;21174;-55
2021/06/13 03:02:06;;;;;;;;;;;;;;;19.16;100.00;98760.82;1794579;78;20918;-56
2021/06/13 03:04:33;;;;;;;8.70;5.95;;;;;;;19.23;100.00;98764.67;1790555;77;20168;-54
2021/06/13 03:07:00;;;;;;;6.72;5.97;;;;;;;19.18;100.00;98760.69;1790063;79;20883;-54
2021/06/13 03:09:30;;;;;;;11.65;6.87;;;;;;;19.05;100.00;98761.91;1815096;76;20925;-55
2021/06/13 03:11:58;;;;;;;11.22;6.30;;;;;;;18.93;100.00;98758.20;1772616;76;21760;-56
2021/06/13 03:14:29;;;;;;;9.08;6.62;;;;;;;19.00;100.00;98749.73;1825024;76;21416;-55
2021/06/13 03:16:57;;;;;;;7.37;5.90;;;;;;;19.14;100.00;98753.81;1824741;76;20885;-55
2021/06/13 03:19:25;;;;;;;7.65;5.40;;;;;;;19.27;100.00;98748.28;1832575;76;20932;-55
2021/06/13 03:21:52;;;;;;;9.85;5.47;;;;;;;19.48;100.00;98743.00;1830351;76;20889;-55
2021/06/13 03:24:20;;;;;;;8.90;5.75;;;;;;;19.68;100.00;98739.09;1827089;76;21099;-56
2021/06/13 03:26:48;;;;;;;6.40;5.65;;;;;;;19.85;100.00;98744.16;1824531;76;20944;-55
2021/06/13 03:29:16;;;;;;;9.05;5.97;;;;;;;19.97;100.00;98743.37;1823998;76;20882;-56
2021/06/13 03:31:44;;;;;;;8.45;6.22;;;;;;;20.13;100.00;98740.73;1827454;76;20917;-55
2021/06/13 03:34:12;;;;;;;9.55;5.42;;;;;;;20.34;100.00;98743.06;1791289;77;20917;-55
2021/06/13 03:36:41;;;;;;;7.87;5.65;;;;;;;20.62;100.00;98742.38;1826774;76;21110;-56
2021/06/13 03:39:09;;;;;;;7.37;5.15;;;;;;;20.93;100.00;98748.98;1798829;76;21402;-55
2021/06/13 03:41:36;;;;;;;9.08;6.05;;;;;;;21.19;100.00;98750.73;1806610;76;20897;-54
2021/06/13 03:44:05;;;;;;;6.35;5.40;;;;;;;21.33;100.00;98765.19;1824766;76;20905;-56
2021/06/13 03:46:32;;;;;;;8.30;5.70;;;;;;;21.52;99.36;98759.02;1825362;76;21444;-58
2021/06/13 03:49:01;;;;;;;7.35;5.80;;;;;;;21.54;97.98;98765.20;1826843;76;20889;-54
2021/06/13 03:51:28;;;;;;;8.65;6.37;;;;;;;21.51;97.46;98764.16;1824909;76;20901;-54
2021/06/13 03:54:01;;;;;;;10.30;5.75;;;;;;;21.53;96.82;98763.50;1824325;76;20905;-55
2021/06/13 03:56:33;;;;;;;11.35;5.90;;;;;;;21.51;96.41;98760.05;1766487;79;20952;-54
2021/06/13 03:59:00;;;;;;;7.67;6.00;;;;;;;21.40;96.97;98760.72;1778687;78;20875;-54
2021/06/13 04:01:27;;;;;;;10.03;5.78;;;;;;;21.33;97.43;98765.19;1776416;78;21133;-54
2021/06/13 04:03:56;;;;;;;7.60;5.97;;;;;;;21.37;97.37;98765.20;1779690;79;20962;-54
2021/06/13 04:06:23;;;;;;;6.87;5.42;;;;;;;21.47;97.12;98762.81;1774857;79;20962;-56
2021/06/13 04:08:51;;;;;;;7.60;5.92;;;;;;;21.66;96.59;98758.34;1749221;79;20893;-55
2021/06/13 04:11:19;;;;;;;9.95;6.47;;;;;;;21.82;95.12;98766.55;1756111;80;20936;-54
2021/06/13 04:13:48;;;;;;;8.18;5.90;;;;;;;22.01;94.30;98752.13;1775299;79;21426;-55
2021/06/13 04:16:16;;;;;;;7.62;5.55;;;;;;;22.25;92.59;98758.95;1788804;78;21484;-54
2021/06/13 04:18:43;;;;;;;9.25;6.00;;;;;;;22.53;90.63;98758.52;1787579;78;21357;-54
2021/06/13 04:21:11;;;;;;;7.58;5.15;;;;;;;22.76;89.13;98747.09;1787996;78;21914;-54
2021/06/13 04:23:39;;;;;;;6.40;5.42;;;;;;;22.86;86.05;98754.61;1788949;78;20955;-54
2021/06/13 04:26:06;;;;;;;7.08;5.20;;;;;;;22.89;84.95;98744.64;1760036;80;21028;-54
2021/06/13 04:28:33;;;;;;;6.37;4.85;;;;;;;23.07;84.67;98744.37;1756875;80;20861;-53
2021/06/13 04:31:11;;;;;;;11.97;5.30;;;;;;;23.30;82.60;98747.14;1762584;80;21503;-55
2021/06/13 04:33:37;;;;;;;6.20;4.67;;;;;;;23.47;81.30;98733.58;1772610;79;21464;-54
2021/06/13 04:36:06;;;;;;;6.80;5.17;;;;;;;23.66;79.06;98738.30;1774304;79;20998;-54
2021/06/13 04:38:33;;;;;;;7.25;4.95;;;;;;;23.79;79.13;98738.50;1772782;79;21594;-54
2021/06/13 04:41:00;;;;;;;10.25;5.30;;;;;;;23.97;78.27;98729.88;1789288;78;21469;-55
2021/06/13 04:43:27;;;;;;;7.05;5.05;;;;;;;24.07;77.03;98733.75;1756460;80;21590;-54
2021/06/13 04:45:55;;;;;;;8.90;5.50;;;;;;;24.04;76.17;98728.95;1787839;78;20939;-53
2021/06/13 04:48:22;;;;;;;7.42;4.78;;;;;;;23.85;77.18;98725.36;1759807;80;20904;-54
2021/06/13 04:50:49;;;;;;;7.03;5.22;;;;;;;23.61;78.44;98730.55;1792799;78;21460;-54
2021/06/13 04:53:47;;;;;;;6.92;5.28;;;;;;;23.30;80.42;98730.63;1783488;77;20947;-54
2021/06/13 04:56:57;;;;;;;6.50;5.90;;;;;;;23.02;82.01;98723.96;1754144;80;21268;-54
2021/06/13 04:59:28;;;;;;;9.30;5.25;;;;;;;22.58;85.33;98724.49;1771012;79;20883;-54
2021/06/13 05:01:55;;;;;;;7.50;5.55;;;;;;;22.28;88.10;98724.28;1787649;78;20988;-54
2021/06/13 05:04:24;;;;;;;9.33;5.42;;;;;;;22.05;90.23;98726.02;1757926;80;21501;-53
2021/06/13 05:06:52;;;;;;;8.30;5.60;;;;;;;21.86;91.98;98730.02;1786449;78;20959;-54
2021/06/13 05:09:19;;;;;;;6.97;5.20;;;;;;;21.75;92.34;98728.48;1759664;79;20964;-55
2021/06/13 05:11:47;;;;;;;6.22;5.10;;;;;;;21.65;93.65;98733.30;1761343;80;21662;-54
2021/06/13 05:14:15;;;;;;;8.95;4.67;;;;;;;21.54;93.91;98726.80;1773108;79;20915;-54
2021/06/13 05:16:45;;;;;;;9.33;5.22;;;;;;;21.45;94.19;98728.16;1756377;79;21133;-54
2021/06/13 05:19:12;;;;;;;10.82;6.05;;;;;;;21.39;95.14;98726.09;1758225;80;21366;-54
2021/06/13 05:21:39;;;;;;;7.62;5.33;;;;;;;21.37;95.95;98725.42;1755099;79;20924;-55
2021/06/13 05:24:06;;;;;;;9.33;5.95;;;;;;;21.35;96.36;98724.72;1756877;80;21307;-55
2021/06/13 05:26:33;;;;;;;6.17;5.40;;;;;;;21.35;96.82;98732.95;1760191;79;21043;-55
2021/06/13 05:29:00;;;;;;;7.80;5.37;;;;;;;21.36;97.49;98727.83;1755847;80;21127;-56
2021/06/13 05:31:27;;;;;;;7.92;5.85;;;;;;;21.40;97.71;98732.44;1759811;80;20924;-54
2021/06/13 05:33:54;;;;;;;9.30;5.80;;;;;;;21.43;97.79;98727.48;1757736;80;20916;-54
2021/06/13 05:36:23;;;;;;;7.80;5.47;;;;;;;21.49;98.10;98724.56;1757573;80;21497;-57
2021/06/13 05:38:50;;;;;;;7.42;5.70;;;;;;;21.64;97.96;98728.84;1774707;78;21018;-55
2021/06/13 05:41:17;;;;;;;7.40;5.47;;;;;;;21.85;96.81;98723.67;1791678;78;21022;-55
2021/06/13 05:43:44;;;;;;;11.75;5.97;;;;;;;22.17;94.95;98730.16;1764092;79;20958;-55
2021/06/13 05:46:11;;;;;;;8.25;5.53;;;;;;;22.49;91.65;98735.53;1789417;78;20919;-57
2021/06/13 05:48:40;;;;;;;9.00;4.70;;;;;;;22.79;89.42;98730.22;1787291;78;21462;-56
2021/06/13 05:51:06;;;;;;;7.30;4.62;;;;;;;23.08;86.82;98728.73;1772403;78;20938;-55
2021/06/13 05:53:33;;;;;;;7.87;5.20;;;;;;;23.33;86.00;98728.91;1754151;79;21171;-57
2021/06/13 05:56:00;;;;;;;8.00;4.90;;;;;;;23.58;82.94;98725.93;1770182;79;21376;-54
2021/06/13 05:58:27;;;;;;;6.95;4.10;;;;;;;23.79;79.74;98719.23;1785160;78;20947;-55
2021/06/13 06:00:54;;;;;;;6.87;4.78;;;;;;;24.07;77.27;98714.47;1783797;78;20967;-55
2021/06/13 06:03:22;;;;;;;7.60;4.42;;;;;;;24.37;73.97;98716.22;1787003;78;21525;-54
2021/06/13 06:05:51;;;;;;;6.28;4.55;;;;;;;24.64;73.20;98715.20;1787534;78;21075;-54
2021/06/13 06:08:18;;;;;;;5.47;3.80;;;;;;;24.91;71.18;98717.23;1790222;78;20916;-54
2021/06/13 06:10:49;;;;;;;6.00;4.40;;;;;;;25.12;68.85;98714.20;1787382;78;21031;-55
2021/06/13 06:13:15;;;;;;;5.65;3.58;;;;;;;25.32;66.37;98718.03;1759052;80;20939;-56
2021/06/13 06:15:43;;;;;;;4.55;3.98;;;;;;;25.57;64.21;98717.97;1755839;79;21461;-56
2021/06/13 06:18:10;;;;;;;6.08;3.65;;;;;;;25.78;62.89;98715.73;1774383;79;21953;-56
2021/06/13 06:20:39;;;;;;;12.43;4.00;;;;;;;25.94;62.69;98720.61;1753559;79;20943;-55
2021/06/13 06:23:06;;;;;;;8.88;3.55;;;;;;;26.12;62.35;98716.30;1775543;78;20946;-56
2021/06/13 06:25:32;;;;;;;4.15;3.65;;;;;;;26.16;60.65;98724.20;1784450;78;21000;-54
2021/06/13 06:28:00;;;;;;;7.65;3.50;;;;;;;26.19;60.25;98727.39;1774065;78;21008;-54
2021/06/13 06:30:28;;;;;;;7.47;3.40;;;;;;;26.21;59.40;98731.36;1788741;78;21754;-53
2021/06/13 06:32:55;;;;;;;5.70;3.60;;;;;;;26.05;57.82;98729.23;1784291;78;20959;-53
2021/06/13 06:35:23;;;;;;;11.22;3.65;;;;;;;25.94;57.17;98728.41;1771232;79;20970;-55
2021/06/13 06:37:50;;;;;;;5.55;3.22;;;;;;;25.98;57.09;98723.30;1787353;78;20974;-55
2021/06/13 06:40:17;;;;;;;5.70;3.08;;;;;;;26.09;56.85;98733.27;1758754;79;21958;-56
2021/06/13 06:42:44;;;;;;;7.67;3.20;;;;;;;26.11;56.13;98735.86;1785750;78;21123;-55
2021/06/13 06:45:12;;;;;;;4.83;2.95;;;;;;;26.06;56.87;98733.69;1786294;78;20971;-55
2021/06/13 06:47:41;;;;;;;5.53;3.20;;;;;;;26.19;56.58;98730.69;1785242;78;21552;-55
2021/06/13 06:50:08;;;;;;;6.00;3.00;;;;;;;26.30;56.50;98734.27;1787970;78;20966;-55
2021/06/13 06:52:36;;;;;;;5.17;2.90;;;;;;;26.30;55.81;98734.27;1789314;78;20919;-56
2021/06/13 06:55:05;;;;;;;3.50;2.70;;;;;;;26.25;55.93;98736.78;1776164;78;21122;-54
2021/06/13 06:57:32;;;;;;;4.60;3.27;;;;;;;26.26;55.61;98731.58;1788381;78;21014;-58
2021/06/13 06:59:59;;;;;;;4.95;3.05;;;;;;;26.37;54.51;98736.03;1787656;78;21563;-55
2021/06/13 07:02:26;;;;;;;5.72;3.35;;;;;;;26.61;52.48;98734.70;1776491;78;20902;-56
2021/06/13 07:04:52;;;;;;;5.40;2.85;;;;;;;26.69;51.80;98728.69;1777350;79;20951;-54
2021/06/13 07:07:20;;;;;;;3.40;2.87;;;;;;;26.56;52.58;98730.30;1784840;79;21854;-55
2021/06/13 07:09:47;;;;;;;5.12;3.08;;;;;;;26.31;53.27;98724.91;1787464;79;20890;-55
2021/06/13 07:12:14;;;;;;;4.58;2.80;;;;;;;25.96;53.71;98725.43;1783607;77;20969;-56
2021/06/13 07:14:41;;;;;;;6.33;3.20;;;;;;;25.65;54.71;98728.53;1784450;77;20895;-55
2021/06/13 07:17:08;;;;;;;7.95;3.45;;;;;;;25.41;55.68;98723.77;1786565;77;20902;-55
2021/06/13 07:19:37;;;;;;;6.08;3.62;;;;;;;25.24;55.92;98719.53;1785603;77;21796;-54
2021/06/13 07:22:04;;;;;;;4.95;3.10;;;;;;;25.04;56.43;98726.20;1785674;79;20934;-54
2021/06/13 07:24:31;;;;;;;4.92;3.30;;;;;;;24.86;57.07;98723.84;1784682;79;20912;-55
2021/06/13 07:26:58;;;;;;;6.03;3.58;;;;;;;24.75;57.65;98731.24;1786337;79;20995;-54
2021/06/13 07:29:24;;;;;;;8.23;3.42;;;;;;;24.71;58.07;98721.64;1784962;79;21025;-54
2021/06/13 07:31:51;;;;;;;5.78;3.52;;;;;;;24.66;57.33;98719.48;1784762;79;21748;-54
2021/06/13 07:34:19;;;;;;;4.05;3.33;;;;;;;24.62;56.33;98722.81;1785249;79;21314;-55
2021/06/13 07:36:46;;;;;;;4.53;3.47;;;;;;;24.52;55.66;98723.95;1786050;79;21087;-54
2021/06/13 07:39:13;;;;;;;6.60;3.77;;;;;;;24.44;56.14;98724.05;1784648;79;21613;-57
2021/06/13 07:41:39;;;;;;;4.05;3.65;;;;;;;24.34;56.39;98726.20;1787006;77;20927;-55
2021/06/13 07:44:06;;;;;;;6.37;3.87;;;;;;;24.25;57.09;98717.72;1786824;79;21712;-55
2021/06/13 07:46:34;;;;;;;9.63;3.65;;;;;;;24.17;57.77;98718.65;1784384;77;20895;-56
2021/06/13 07:49:02;;;;;;;7.30;4.28;;;;;;;24.15;58.32;98724.03;1784399;79;20973;-56
2021/06/13 07:51:29;;;;;;;6.30;4.47;;;;;;;24.13;58.65;98723.34;1783379;77;20957;-56
2021/06/13 07:53:56;;;;;;;7.08;4.25;;;;;;;24.11;58.57;98724.06;1787279;79;20969;-55
2021/06/13 07:56:24;;;;;;;5.28;3.87;;;;;;;24.01;59.19;98723.81;1785786;79;22253;-56
2021/06/13 07:58:50;;;;;;;6.28;4.10;;;;;;;23.94;58.91;98725.63;1790230;79;20978;-57
2021/06/13 08:01:18;;;;;;;9.28;4.35;;;;;;;23.76;59.51;98736.14;1786802;79;20919;-56
2021/06/13 08:03:45;;;;;;;5.12;4.05;;;;;;;23.63;60.86;98734.52;1787170;78;20978;-56
2021/06/13 08:06:12;;;;;;;11.65;5.62;;;;;;;23.51;61.45;98739.06;1789016;79;21554;-57
2021/06/13 08:08:39;;;;;;;10.55;5.03;;;;;;;23.46;61.78;98741.51;1784582;77;21641;-56
2021/06/13 08:11:08;;;;;;;7.30;4.50;;;;;;;23.46;61.60;98736.00;1754538;79;20903;-56
2021/06/13 08:13:36;;;;;;;5.55;4.33;;;;;;;23.43;61.29;98739.11;1782064;78;21342;-55
2021/06/13 08:16:05;;;;;;;4.92;4.42;;;;;;;23.43;61.85;98743.23;1783488;79;20891;-55
2021/06/13 08:18:32;;;;;;;7.72;4.42;;;;;;;23.44;60.93;98737.24;1779373;79;20982;-55
2021/06/13 08:20:59;;;;;;;5.28;4.62;;;;;;;23.52;61.57;98739.39;1779165;78;21137;-55
2021/06/13 08:23:27;;;;;;;6.62;4.67;;;;;;;23.61;61.85;98735.20;1778534;79;20910;-56
2021/06/13 08:25:54;;;;;;;7.12;4.78;;;;;;;23.69;62.29;98732.40;1777549;79;21458;-57
2021/06/13 08:28:21;;;;;;;8.78;4.97;;;;;;;23.70;62.83;98729.97;1779105;79;20891;-57
2021/06/13 08:30:48;;;;;;;9.35;4.35;;;;;;;23.68;62.41;98731.55;1780639;79;21011;-56
2021/06/13 08:33:15;;;;;;;7.00;4.35;;;;;;;23.62;61.99;98739.66;1779125;79;21137;-57
2021/06/13 08:35:42;;;;;;;6.55;4.62;;;;;;;23.50;62.93;98735.98;1774545;79;21010;-57
2021/06/13 08:38:09;;;;;;;6.17;4.75;;;;;;;23.39;63.41;98733.66;1779117;79;21619;-57
2021/06/13 08:40:36;;;;;;;5.92;4.30;;;;;;;23.33;63.57;98737.16;1781934;79;21024;-55
2021/06/13 08:43:03;;;;;;;10.63;5.22;;;;;;;23.27;63.90;98741.98;1778271;79;21397;-56
2021/06/13 08:45:34;;;;;;;13.15;6.60;;;;;;;23.18;64.76;98738.98;1781309;79;20993;-56
2021/06/13 08:48:01;;;;;;;8.78;5.42;;;;;;;23.11;65.64;98734.70;1780716;78;20876;-56
2021/06/13 08:50:28;;;;;;;8.40;5.10;;;;;;;23.13;65.82;98737.30;1775416;79;20873;-56
2021/06/13 08:52:55;;;;;;;7.65;5.45;;;;;;;23.20;65.66;98747.89;1776879;79;20916;-55
2021/06/13 08:55:22;;;;;;;9.30;5.67;;;;;;;23.30;65.74;98741.63;1745475;81;20972;-56
2021/06/13 08:57:51;;;;;;;8.00;5.35;;;;;;;23.37;65.38;98734.34;1778009;79;21114;-56
2021/06/13 09:00:23;;;;;;;7.72;5.50;;;;;;;23.44;63.33;98736.72;1779166;78;20877;-58
2021/06/13 09:02:49;;;;;;;9.38;5.10;;;;;;;23.48;62.55;98727.03;1780289;79;21957;-55
2021/06/13 09:05:19;;;;;;;8.95;4.70;;;;;;;23.55;61.80;98735.43;1779555;79;21487;-56
2021/06/13 09:07:52;;;;;;;6.17;4.30;;;;;;;23.60;61.07;98736.25;1778524;79;21573;-57
2021/06/13 09:10:23;;;;;;;11.28;5.10;;;;;;;23.60;60.09;98733.50;1784057;78;21118;-55
2021/06/13 09:12:50;;;;;;;12.30;6.03;;;;;;;23.41;63.72;98734.84;1757972;80;20971;-57
2021/06/13 09:15:20;;;;;;;8.28;5.85;;;;;;;23.13;68.36;98742.80;1772483;79;20978;-57
2021/06/13 09:17:47;;;;;;;12.80;7.08;;;;;;;22.75;83.46;98761.88;1741919;79;20927;-56
2021/06/13 09:20:20;;;;;;;8.45;7.17;;;;;;;22.09;100.00;98763.09;1768187;79;21383;-56
2021/06/13 09:23:11;;;;;;;8.23;6.92;;;;;;;21.36;100.00;98763.48;1772144;78;21142;-58
2021/06/13 09:25:41;;;;;;;;;;;;;;;20.85;100.00;98758.55;1771222;79;20919;-62
2021/06/13 09:28:14;;;;;;;9.43;7.67;;;;;;;20.27;100.00;98742.87;1769267;79;20109;-63
2021/06/13 09:30:48;;;;;;;11.15;8.90;;;;;;;19.90;100.00;98754.11;1771653;80;20966;-62
2021/06/13 09:33:27;;;;;;;10.00;7.83;;;;;;;19.69;100.00;98758.58;1768529;79;21475;-62
2021/06/13 09:35:58;;;;;;;10.45;9.35;;;;;;;19.51;100.00;98750.89;1771360;79;20864;-61
2021/06/13 09:38:31;;;;;;;12.98;9.68;;;;;;;19.42;100.00;98761.41;1768213;79;20962;-61
2021/06/13 09:41:01;;;;;;;12.63;9.20;;;;;;;19.40;100.00;98775.75;1752166;79;20987;-60
2021/06/13 09:43:42;;;;;;;12.15;10.65;;;;;;;19.44;100.00;98778.50;1770564;78;20997;-62
2021/06/13 09:46:15;;;;;;;13.20;10.18;;;;;;;19.48;100.00;98777.18;1771733;79;21524;-62
2021/06/13 09:48:50;;;;;;;13.65;11.25;;;;;;;19.51;100.00;98765.94;1767534;79;21106;-60
2021/06/13 09:51:25;;;;;;;13.22;11.70;;;;;;;19.63;100.00;98771.53;1769632;79;21519;-59
2021/06/13 09:53:55;;;;;;;15.58;13.22;;;;;;;19.77;100.00;98768.23;1768504;80;21444;-59
2021/06/13 09:56:30;;;;;;;14.50;12.25;;;;;;;19.89;100.00;98764.20;1771385;78;20872;-60
2021/06/13 09:59:06;;;;;;;14.28;11.33;;;;;;;20.06;100.00;98765.68;1769146;79;20962;-59
2021/06/13 10:01:41;;;;;;;13.38;10.95;;;;;;;20.22;100.00;98764.41;1770187;78;21142;-60
2021/06/13 10:04:22;;;;;;;11.83;10.55;;;;;;;20.34;100.00;98757.61;1770333;79;20899;-59
2021/06/13 10:06:50;;;;;;;8.13;7.22;;;;;;;20.45;100.00;98761.09;1739649;79;20899;-61
2021/06/13 10:09:19;;;;;;;8.50;7.70;;;;;;;20.50;100.00;98761.48;1771202;80;20978;-57
2021/06/13 10:11:50;;;;;;;9.65;7.12;;;;;;;20.57;100.00;98767.53;1772445;79;20950;-58
2021/06/13 10:14:18;;;;;;;8.10;6.85;;;;;;;20.67;100.00;98772.89;1775011;78;21762;-56
2021/06/13 10:16:54;;;;;;;7.05;5.60;;;;;;;20.73;100.00;98770.84;1770118;78;21507;-59
2021/06/13 10:19:25;;;;;;;7.20;5.90;;;;;;;20.77;100.00;98768.09;1770423;78;21830;-56
2021/06/13 10:21:57;;;;;;;6.47;5.30;;;;;;;20.78;100.00;98773.95;1771630;79;20922;-58
2021/06/13 10:24:27;;;;;;;5.17;4.58;;;;;;;20.73;100.00;98770.84;1772596;79;20887;-58
2021/06/13 10:26:59;;;;;;;5.05;4.55;;;;;;;20.68;100.00;98773.22;1773953;79;21750;-57
2021/06/13 10:29:28;;;;;;;4.45;4.05;;;;;;;20.66;100.00;98760.18;1775289;78;20903;-55
2021/06/13 10:31:57;;;;;;;4.50;4.10;;;;;;;20.69;100.00;98776.30;1775103;79;20887;-56
2021/06/13 10:34:25;;;;;;;4.60;4.20;;;;;;;20.76;100.00;98783.34;1773727;79;20930;-54
2021/06/13 10:36:52;;;;;;;4.15;3.15;;;;;;;20.84;100.00;98784.24;1777078;79;20893;-55
2021/06/13 10:39:22;;;;;;;4.33;2.77;;;;;;;20.84;100.00;98787.50;1770831;79;22249;-54
2021/06/13 10:41:50;;;;;;;3.35;2.67;;;;;;;20.74;100.00;98783.52;1771817;79;20975;-55
2021/06/13 10:44:20;;;;;;;5.55;2.58;;;;;;;20.66;100.00;98779.36;1772510;79;20919;-55
2021/06/13 10:46:51;;;;;;;3.20;2.90;;;;;;;20.51;100.00;98774.19;1774916;78;20906;-55
2021/06/13 10:49:39;;;;;;;3.70;2.47;;;;;;;20.34;100.00;98767.20;1714921;82;21007;-55
2021/06/13 10:52:15;;;;;;;2.90;2.70;;;;;;;20.24;100.00;98776.55;1739107;80;21434;-56
2021/06/13 10:54:55;;;;;;;2.95;2.40;;;;;;;20.17;100.00;98779.09;1739277;81;20919;-58
2021/06/13 10:57:25;;;;;;;4.25;2.33;;;;;;;20.13;100.00;98784.53;1717806;81;20919;-56
2021/06/13 10:59:58;;;;;;;2.37;2.02;;;;;;;20.13;96.99;98795.48;1742937;81;21476;-55
2021/06/13 11:02:28;;;;;;;2.87;2.20;;;;;;;20.13;98.18;98818.75;1711437;81;20895;-55
2021/06/13 11:05:01;;;;;;;2.42;2.10;;;;;;;20.15;99.73;98826.31;1739758;80;21792;-56
2021/06/13 11:07:37;;;;;;;1.72;1.60;;;;;;;20.19;99.72;98840.52;1735532;80;21520;-56
2021/06/13 11:10:10;;;;;;;1.70;1.40;;;;;;;20.21;93.99;98836.61;1739240;80;20927;-56
2021/06/13 11:12:59;;;;;;;1.75;1.65;;;;;;;20.25;92.74;98834.42;1782255;79;21463;-55
2021/06/13 11:15:32;;;;;;;1.65;1.55;;;;;;;20.30;92.95;98835.66;1787943;79;20867;-56
2021/06/13 11:18:16;;;;;;;1.67;1.57;;;;;;;20.31;89.50;98840.11;1786128;77;21030;-56
2021/06/13 11:21:18;;;;;;;2.85;1.80;;;;;;;20.31;89.58;98840.11;1784331;79;20997;-55
2021/06/13 11:23:46;;;;;;;;;;;;;;;20.30;90.33;98827.44;1788088;77;20874;-56
2021/06/13 11:26:34;;;;;;;2.80;1.52;;;;;;;20.26;89.48;98822.45;1785095;78;20531;-56
2021/06/13 11:29:01;;;;;;;3.77;1.70;;;;;;;20.24;91.17;98830.83;1787093;79;20945;-56
2021/06/13 11:31:28;;;;;;;2.05;1.85;;;;;;;20.23;92.17;98817.28;1789861;79;21146;-56
2021/06/13 11:34:01;;;;;;;2.10;1.42;;;;;;;20.27;94.66;98810.47;1786908;79;20902;-54
2021/06/13 11:36:34;;;;;;;1.50;1.40;;;;;;;20.34;93.97;98831.55;1787269;79;20958;-55
2021/06/13 11:39:10;;;;;;;1.62;1.52;;;;;;;20.43;92.45;98835.21;1786306;79;20937;-55
2021/06/13 11:41:44;;;;;;;4.00;1.17;;;;;;;20.53;91.68;98843.35;1787830;77;20934;-55
2021/06/13 11:44:29;;;;;;;2.05;1.70;;;;;;;20.62;89.66;98848.72;1785650;79;20918;-57
2021/06/13 11:46:56;;;;;;;1.80;1.52;;;;;;;20.74;90.08;98850.66;1788182;78;20977;-56
2021/06/13 11:49:46;;;;;;;2.20;1.10;;;;;;;20.81;86.53;98840.74;1788258;79;21431;-56
2021/06/13 11:52:13;;;;;;;1.60;1.00;;;;;;;20.84;85.53;98835.45;1786508;79;20883;-55